createdAt,value
2019-05-29T00:02:07.947Z,17.08
2019-05-29T00:04:34.721Z,17.17
2019-05-29T00:07:01.509Z,17.13
2019-05-29T00:09:28.237Z,17.05
2019-05-29T00:11:54.924Z,17.11
2019-05-29T00:14:27.115Z,16.98
2019-05-29T00:16:50.272Z,17.03
2019-05-29T00:19:17.079Z,17.15
2019-05-29T00:21:43.690Z,17.16
2019-05-29T00:24:12.488Z,17.15
2019-05-29T00:26:39.330Z,17.25
2019-05-29T00:29:06.162Z,17.24
2019-05-29T00:31:32.835Z,17.32
2019-05-29T00:33:59.669Z,17.34
2019-05-29T00:36:26.392Z,17.27
2019-05-29T00:38:53.057Z,17.34
2019-05-29T00:41:20.894Z,17.38
2019-05-29T00:43:47.660Z,17.37
2019-05-29T00:46:15.577Z,17.38
2019-05-29T00:48:42.611Z,17.36
2019-05-29T00:51:09.362Z,17.43
2019-05-29T00:53:36.035Z,17.40
2019-05-29T00:56:02.942Z,17.25
2019-05-29T00:58:29.542Z,17.19
2019-05-29T01:00:56.289Z,17.20
2019-05-29T01:03:23.008Z,17.14
2019-05-29T01:05:49.760Z,17.23
2019-05-29T01:08:18.404Z,17.22
2019-05-29T01:10:44.970Z,17.24
2019-05-29T01:13:13.044Z,17.22
2019-05-29T01:15:43.227Z,17.29
2019-05-29T01:18:09.964Z,17.15
2019-05-29T01:20:38.156Z,17.02
2019-05-29T01:23:04.933Z,17.09
2019-05-29T01:25:31.562Z,17.18
2019-05-29T01:27:58.359Z,17.06
2019-05-29T01:30:25.028Z,16.86
2019-05-29T01:32:51.674Z,16.99
2019-05-29T01:35:18.450Z,16.98
2019-05-29T01:37:45.029Z,17.00
2019-05-29T01:40:21.122Z,16.98
2019-05-29T01:42:42.008Z,17.09
2019-05-29T01:45:09.272Z,17.09
2019-05-29T01:47:35.979Z,16.94
2019-05-29T01:50:06.032Z,16.80
2019-05-29T01:52:32.825Z,16.80
2019-05-29T01:54:59.462Z,16.86
2019-05-29T01:57:26.032Z,16.94
2019-05-29T01:59:52.745Z,16.98
2019-05-29T02:02:19.865Z,16.98
2019-05-29T02:04:46.576Z,16.96
2019-05-29T02:07:13.222Z,16.96
2019-05-29T02:09:39.813Z,16.95
2019-05-29T02:12:06.655Z,17.03
2019-05-29T02:14:33.259Z,17.11
2019-05-29T02:17:00.106Z,17.04
2019-05-29T02:19:28.168Z,17.00
2019-05-29T02:21:55.142Z,16.87
2019-05-29T02:24:23.160Z,17.01
2019-05-29T02:26:50.179Z,17.04
2019-05-29T02:29:16.861Z,17.04
2019-05-29T02:31:43.435Z,17.13
2019-05-29T02:34:10.213Z,17.17
2019-05-29T02:36:36.949Z,17.20
2019-05-29T02:39:06.590Z,17.19
2019-05-29T02:41:33.326Z,17.26
2019-05-29T02:44:00.098Z,17.23
2019-05-29T02:46:28.612Z,17.12
2019-05-29T02:48:55.385Z,17.09
2019-05-29T02:51:22.542Z,16.96
2019-05-29T02:53:50.896Z,16.75
2019-05-29T02:56:17.757Z,16.78
2019-05-29T02:58:44.752Z,16.69
2019-05-29T03:01:11.520Z,16.54
2019-05-29T03:03:40.038Z,16.69
2019-05-29T03:06:07.234Z,16.66
2019-05-29T03:08:34.590Z,16.58
2019-05-29T03:11:01.610Z,16.51
2019-05-29T03:13:30.527Z,16.44
2019-05-29T03:16:09.495Z,16.26
2019-05-29T03:18:25.953Z,16.15
2019-05-29T03:20:52.550Z,16.15
2019-05-29T03:23:19.483Z,16.08
2019-05-29T03:25:46.127Z,16.12
2019-05-29T03:28:12.709Z,15.87
2019-05-29T03:30:45.971Z,15.79
2019-05-29T03:33:08.089Z,15.78
2019-05-29T03:35:43.212Z,15.70
2019-05-29T03:38:05.105Z,15.75
2019-05-29T03:40:33.598Z,15.78
2019-05-29T03:43:00.354Z,15.66
2019-05-29T03:45:28.985Z,15.60
2019-05-29T03:47:57.252Z,15.78
2019-05-29T03:50:26.567Z,15.73
2019-05-29T03:52:53.680Z,15.73
2019-05-29T03:55:20.445Z,15.71
2019-05-29T03:57:47.107Z,15.57
2019-05-29T04:00:14.472Z,15.48
2019-05-29T04:02:41.349Z,15.60
2019-05-29T04:05:08.949Z,15.58
2019-05-29T04:07:36.158Z,15.34
2019-05-29T04:10:07.699Z,15.34
2019-05-29T04:12:35.506Z,15.07
2019-05-29T04:15:04.752Z,15.18
2019-05-29T04:17:35.526Z,15.06
2019-05-29T04:20:07.114Z,15.06
2019-05-29T04:22:39.547Z,14.89
2019-05-29T04:25:07.973Z,14.81
2019-05-29T04:27:40.116Z,14.72
2019-05-29T04:30:07.375Z,14.81
2019-05-29T04:32:34.445Z,14.71
2019-05-29T04:35:01.193Z,14.64
2019-05-29T04:37:28.345Z,14.59
2019-05-29T04:39:55.301Z,14.42
2019-05-29T04:42:21.868Z,14.63
2019-05-29T04:44:48.527Z,14.68
2019-05-29T04:47:15.156Z,14.68
2019-05-29T04:49:41.724Z,14.44
2019-05-29T04:52:08.517Z,14.59
2019-05-29T04:54:35.431Z,14.55
2019-05-29T04:57:02.319Z,14.64
2019-05-29T04:59:28.967Z,14.57
2019-05-29T05:01:55.585Z,14.71
2019-05-29T05:04:22.208Z,14.80
2019-05-29T05:06:49.025Z,14.50
2019-05-29T05:09:15.631Z,14.45
2019-05-29T05:11:42.348Z,14.58
2019-05-29T05:14:09.097Z,14.59
2019-05-29T05:16:37.885Z,14.38
2019-05-29T05:19:05.009Z,14.30
2019-05-29T05:21:32.008Z,14.26
2019-05-29T05:23:58.746Z,14.27
2019-05-29T05:26:25.356Z,14.27
2019-05-29T05:28:52.292Z,14.36
2019-05-29T05:31:19.008Z,14.10
2019-05-29T05:33:45.808Z,14.22
2019-05-29T05:36:12.520Z,14.33
2019-05-29T05:38:39.276Z,14.26
2019-05-29T05:41:05.902Z,14.15
2019-05-29T05:43:32.906Z,14.10
2019-05-29T05:45:59.812Z,13.99
2019-05-29T05:48:26.960Z,13.96
2019-05-29T05:50:53.536Z,14.19
2019-05-29T05:53:20.690Z,13.90
2019-05-29T05:55:47.355Z,13.89
2019-05-29T05:58:14.024Z,13.73
2019-05-29T06:00:42.112Z,13.68
2019-05-29T06:03:09.108Z,13.72
2019-05-29T06:05:36.216Z,13.20
2019-05-29T06:08:03.554Z,13.57
2019-05-29T06:10:30.565Z,13.52
2019-05-29T06:12:57.520Z,13.49
2019-05-29T06:15:24.425Z,13.56
2019-05-29T06:18:10.194Z,13.40
2019-05-29T06:20:19.993Z,13.52
2019-05-29T06:22:46.685Z,13.50
2019-05-29T06:25:15.000Z,13.46
2019-05-29T06:27:41.659Z,13.67
2019-05-29T06:30:09.187Z,13.71
2019-05-29T06:32:37.273Z,13.78
2019-05-29T06:35:04.999Z,13.82
2019-05-29T06:37:31.666Z,13.59
2019-05-29T06:39:59.702Z,13.63
2019-05-29T06:42:26.618Z,13.73
2019-05-29T06:44:53.419Z,13.75
2019-05-29T06:47:21.510Z,13.33
2019-05-29T06:49:48.151Z,13.42
2019-05-29T06:52:14.904Z,13.43
2019-05-29T06:54:42.035Z,13.37
2019-05-29T06:57:09.654Z,13.45
2019-05-29T06:59:36.262Z,13.50
2019-05-29T07:02:03.167Z,13.59
2019-05-29T07:04:29.881Z,13.54
2019-05-29T07:06:56.669Z,13.44
2019-05-29T07:09:23.362Z,13.50
2019-05-29T07:11:52.956Z,13.39
2019-05-29T07:14:19.598Z,13.38
2019-05-29T07:16:55.750Z,13.36
2019-05-29T07:19:47.647Z,13.40
2019-05-29T07:21:45.025Z,13.35
2019-05-29T07:24:12.271Z,13.26
2019-05-29T07:26:39.059Z,13.04
2019-05-29T07:29:08.493Z,13.12
2019-05-29T07:31:34.543Z,13.25
2019-05-29T07:34:02.777Z,13.43
2019-05-29T07:37:25.748Z,13.43
2019-05-29T07:39:52.628Z,13.46
2019-05-29T07:42:19.533Z,13.28
2019-05-29T07:44:46.477Z,13.35
2019-05-29T07:47:13.362Z,13.21
2019-05-29T07:49:44.351Z,12.90
2019-05-29T07:52:08.770Z,13.29
2019-05-29T07:54:35.375Z,13.17
2019-05-29T07:57:02.125Z,13.32
2019-05-29T07:59:28.812Z,13.27
2019-05-29T08:01:55.638Z,13.26
2019-05-29T08:04:22.255Z,13.27
2019-05-29T08:06:54.233Z,13.22
2019-05-29T08:09:17.694Z,13.22
2019-05-29T08:11:45.627Z,13.41
2019-05-29T08:14:12.756Z,13.47
2019-05-29T08:16:39.799Z,13.50
2019-05-29T08:19:08.089Z,13.71
2019-05-29T08:21:35.218Z,13.82
2019-05-29T08:24:03.197Z,13.65
2019-05-29T08:26:29.861Z,13.73
2019-05-29T08:28:56.948Z,13.70
2019-05-29T08:31:23.564Z,13.58
2019-05-29T08:33:51.303Z,13.54
2019-05-29T08:36:18.518Z,13.54
2019-05-29T08:38:45.800Z,13.59
2019-05-29T08:41:13.155Z,13.60
2019-05-29T08:43:39.931Z,13.22
2019-05-29T08:46:06.856Z,13.22
2019-05-29T08:48:33.463Z,13.22
2019-05-29T08:51:00.173Z,13.12
2019-05-29T08:53:26.813Z,13.18
2019-05-29T08:55:53.564Z,13.22
2019-05-29T08:58:20.225Z,13.33
2019-05-29T09:00:50.558Z,13.27
2019-05-29T09:04:11.878Z,13.20
2019-05-29T09:06:38.558Z,13.30
2019-05-29T09:09:06.255Z,13.45
2019-05-29T09:11:33.082Z,13.38
2019-05-29T09:14:00.208Z,13.32
2019-05-29T09:16:28.523Z,13.29
2019-05-29T09:18:55.171Z,13.37
2019-05-29T09:21:23.599Z,13.40
2019-05-29T09:23:50.663Z,13.40
2019-05-29T09:26:21.933Z,13.42
2019-05-29T09:28:45.875Z,13.47
2019-05-29T09:31:14.958Z,13.64
2019-05-29T09:33:41.552Z,13.60
2019-05-29T09:36:08.184Z,13.37
2019-05-29T09:38:34.757Z,13.38
2019-05-29T09:41:01.412Z,13.58
2019-05-29T09:43:30.684Z,13.69
2019-05-29T09:45:56.851Z,13.61
2019-05-29T09:48:26.951Z,13.67
2019-05-29T09:50:52.129Z,13.78
2019-05-29T09:53:18.794Z,13.90
2019-05-29T09:55:45.501Z,13.86
2019-05-29T09:58:12.183Z,13.94
2019-05-29T10:00:39.056Z,13.98
2019-05-29T10:03:05.636Z,13.86
2019-05-29T10:05:34.839Z,14.05
2019-05-29T10:08:02.330Z,13.76
2019-05-29T10:10:30.045Z,13.87
2019-05-29T10:12:57.989Z,13.71
2019-05-29T10:15:25.341Z,14.00
2019-05-29T10:17:51.976Z,13.82
2019-05-29T10:20:20.920Z,13.80
2019-05-29T10:22:47.482Z,13.71
2019-05-29T10:25:16.034Z,13.76
2019-05-29T10:27:42.946Z,13.98
2019-05-29T10:30:13.077Z,13.93
2019-05-29T10:32:39.861Z,14.00
2019-05-29T10:35:06.875Z,14.09
2019-05-29T10:37:33.761Z,14.10
2019-05-29T10:40:00.334Z,13.95
2019-05-29T10:42:27.205Z,14.03
2019-05-29T10:44:53.997Z,13.79
2019-05-29T10:47:21.231Z,13.95
2019-05-29T10:49:47.968Z,13.71
2019-05-29T10:52:17.366Z,14.14
2019-05-29T10:54:44.086Z,14.02
2019-05-29T10:57:10.961Z,14.02
2019-05-29T10:59:38.773Z,13.97
2019-05-29T11:02:05.632Z,14.13
2019-05-29T11:04:32.507Z,14.15
2019-05-29T11:06:59.267Z,13.80
2019-05-29T11:09:25.877Z,14.19
2019-05-29T11:11:53.663Z,14.25
2019-05-29T11:14:21.439Z,14.15
2019-05-29T11:16:49.039Z,14.38
2019-05-29T11:19:17.316Z,14.23
2019-05-29T11:21:44.042Z,14.06
2019-05-29T11:24:10.716Z,14.24
2019-05-29T11:26:37.337Z,14.19
2019-05-29T11:29:04.637Z,14.05
2019-05-29T11:31:31.399Z,14.16
2019-05-29T11:33:59.252Z,14.25
2019-05-29T11:36:26.554Z,14.36
2019-05-29T11:38:54.527Z,14.18
2019-05-29T11:41:26.377Z,14.11
2019-05-29T11:43:50.707Z,14.14
2019-05-29T11:46:17.785Z,14.28
2019-05-29T11:48:45.043Z,14.22
2019-05-29T11:51:12.826Z,14.50
2019-05-29T11:53:39.402Z,14.64
2019-05-29T11:56:06.026Z,14.88
2019-05-29T11:58:32.742Z,14.80
2019-05-29T12:00:59.516Z,14.73
2019-05-29T12:03:26.220Z,14.71
2019-05-29T12:05:55.339Z,14.84
2019-05-29T12:08:22.455Z,14.73
2019-05-29T12:10:49.236Z,14.60
2019-05-29T12:13:17.274Z,14.93
2019-05-29T12:15:43.942Z,14.98
2019-05-29T12:18:22.750Z,14.64
2019-05-29T12:20:39.173Z,14.76
2019-05-29T12:23:22.932Z,14.93
2019-05-29T12:25:34.518Z,14.89
2019-05-29T12:28:01.406Z,14.98
2019-05-29T12:30:29.827Z,15.11
2019-05-29T12:32:56.862Z,15.09
2019-05-29T12:35:23.738Z,15.10
2019-05-29T12:37:50.325Z,15.38
2019-05-29T12:40:17.642Z,15.25
2019-05-29T12:42:45.167Z,15.44
2019-05-29T12:45:13.305Z,15.40
2019-05-29T12:47:40.015Z,15.32
2019-05-29T12:50:10.860Z,15.15
2019-05-29T12:52:37.767Z,15.30
2019-05-29T12:55:07.010Z,15.59
2019-05-29T12:57:33.925Z,15.28
2019-05-29T13:00:00.535Z,15.61
2019-05-29T13:02:27.257Z,15.49
2019-05-29T13:05:19.288Z,15.77
2019-05-29T13:07:22.712Z,16.03
2019-05-29T13:09:49.456Z,16.09
2019-05-29T13:12:16.154Z,16.04
2019-05-29T13:14:43.052Z,15.82
2019-05-29T13:17:09.675Z,16.01
2019-05-29T13:19:37.469Z,16.11
2019-05-29T13:22:06.237Z,16.28
2019-05-29T13:24:36.115Z,16.50
2019-05-29T13:27:03.866Z,16.38
2019-05-29T13:29:32.902Z,16.59
2019-05-29T13:32:02.051Z,16.55
2019-05-29T13:34:28.540Z,16.60
2019-05-29T13:36:59.874Z,16.75
2019-05-29T13:39:23.800Z,16.83
2019-05-29T13:41:50.562Z,16.90
2019-05-29T13:44:17.345Z,16.61
2019-05-29T13:46:43.964Z,16.22
2019-05-29T13:49:10.684Z,15.98
2019-05-29T13:51:37.290Z,16.26
2019-05-29T13:54:14.048Z,16.33
2019-05-29T13:56:35.318Z,16.36
2019-05-29T13:59:02.389Z,16.52
2019-05-29T14:01:28.993Z,16.76
2019-05-29T14:03:55.630Z,16.93
2019-05-29T14:06:22.355Z,16.34
2019-05-29T14:08:49.167Z,16.72
2019-05-29T14:11:15.890Z,16.86
2019-05-29T14:13:42.668Z,16.88
2019-05-29T14:16:09.461Z,17.27
2019-05-29T14:18:36.138Z,17.29
2019-05-29T14:21:05.128Z,17.20
2019-05-29T14:23:32.265Z,17.20
2019-05-29T14:26:00.302Z,16.94
2019-05-29T14:28:27.317Z,17.01
2019-05-29T14:30:53.898Z,16.82
2019-05-29T14:33:20.483Z,17.33
2019-05-29T14:35:47.072Z,17.64
2019-05-29T14:38:15.199Z,17.24
2019-05-29T14:40:42.082Z,16.55
2019-05-29T14:43:12.996Z,16.76
2019-05-29T14:45:37.208Z,16.84
2019-05-29T14:48:04.239Z,17.18
2019-05-29T14:50:31.049Z,17.82
2019-05-29T14:52:57.925Z,17.57
2019-05-29T14:55:24.829Z,17.90
2019-05-29T14:57:53.300Z,18.04
2019-05-29T15:00:25.502Z,18.36
2019-05-29T15:02:49.973Z,18.67
2019-05-29T15:05:17.490Z,18.49
2019-05-29T15:07:44.457Z,18.85
2019-05-29T15:10:24.901Z,18.80
2019-05-29T15:12:41.398Z,18.19
2019-05-29T15:15:11.035Z,17.89
2019-05-29T15:17:38.223Z,17.57
2019-05-29T15:20:09.802Z,17.47
2019-05-29T15:22:37.010Z,17.14
2019-05-29T15:25:16.699Z,17.12
2019-05-29T15:27:35.438Z,16.95
2019-05-29T15:30:06.150Z,17.02
2019-05-29T15:32:33.364Z,17.09
2019-05-29T15:35:00.462Z,16.68
2019-05-29T15:37:27.099Z,16.94
2019-05-29T15:39:53.810Z,16.63
2019-05-29T15:42:20.661Z,16.42
2019-05-29T15:44:47.365Z,16.63
2019-05-29T15:47:14.970Z,16.34
2019-05-29T15:49:41.993Z,16.43
2019-05-29T15:52:09.190Z,16.28
2019-05-29T15:54:35.969Z,16.42
2019-05-29T15:57:03.019Z,16.50
2019-05-29T15:59:31.078Z,16.71
2019-05-29T16:01:57.814Z,16.59
2019-05-29T16:04:24.439Z,16.53
2019-05-29T16:06:54.894Z,16.26
2019-05-29T16:09:22.675Z,16.17
2019-05-29T16:11:49.302Z,16.55
2019-05-29T16:14:16.778Z,16.35
2019-05-29T16:16:43.722Z,16.70
2019-05-29T16:19:10.338Z,16.80
2019-05-29T16:21:37.062Z,16.62
2019-05-29T16:24:04.015Z,16.75
2019-05-29T16:26:31.423Z,16.65
2019-05-29T16:28:58.101Z,16.59
2019-05-29T16:31:24.682Z,16.69
2019-05-29T16:33:51.305Z,16.70
2019-05-29T16:36:18.703Z,16.35
2019-05-29T16:38:45.689Z,16.31
2019-05-29T16:41:13.677Z,16.23
2019-05-29T16:43:40.596Z,16.28
2019-05-29T16:46:07.333Z,16.30
2019-05-29T16:48:34.003Z,16.35
2019-05-29T16:51:00.634Z,16.38
2019-05-29T16:53:27.382Z,16.15
2019-05-29T16:55:54.587Z,16.20
2019-05-29T16:58:21.697Z,16.02
2019-05-29T17:00:48.526Z,15.79
2019-05-29T17:03:15.598Z,15.93
2019-05-29T17:05:42.760Z,15.91
2019-05-29T17:08:13.944Z,15.78
2019-05-29T17:10:41.012Z,15.68
2019-05-29T17:13:07.784Z,15.92
2019-05-29T17:15:34.669Z,16.00
2019-05-29T17:18:02.277Z,15.88
2019-05-29T17:20:34.786Z,15.87
2019-05-29T17:23:01.686Z,15.83
2019-05-29T17:25:28.607Z,15.79
2019-05-29T17:27:55.407Z,15.74
2019-05-29T17:30:29.412Z,15.84
2019-05-29T17:32:56.222Z,15.94
2019-05-29T17:35:23.155Z,15.87
2019-05-29T17:37:50.071Z,15.86
2019-05-29T17:40:17.275Z,15.76
2019-05-29T17:42:45.308Z,15.39
2019-05-29T17:45:13.107Z,15.28
2019-05-29T17:47:41.243Z,15.46
2019-05-29T17:50:09.882Z,15.49
2019-05-29T17:52:37.183Z,15.70
2019-05-29T17:55:05.797Z,15.66
2019-05-29T17:57:34.400Z,15.42
2019-05-29T18:00:01.038Z,15.38
2019-05-29T18:02:28.011Z,15.31
2019-05-29T18:04:55.254Z,15.25
2019-05-29T18:07:22.668Z,15.00
2019-05-29T18:09:51.680Z,14.96
2019-05-29T18:12:19.219Z,14.88
2019-05-29T18:14:46.211Z,15.15
2019-05-29T18:17:13.313Z,15.10
2019-05-29T18:19:39.992Z,14.93
2019-05-29T18:22:06.969Z,15.05
2019-05-29T18:24:33.685Z,15.05
2019-05-29T18:27:00.500Z,15.14
2019-05-29T18:29:29.452Z,15.10
2019-05-29T18:31:55.921Z,15.16
2019-05-29T18:34:22.877Z,15.10
2019-05-29T18:36:50.024Z,14.83
2019-05-29T18:39:17.183Z,14.81
2019-05-29T18:41:47.917Z,14.78
2019-05-29T18:44:14.586Z,14.94
2019-05-29T18:46:41.443Z,14.86
2019-05-29T18:49:08.294Z,14.88
2019-05-29T18:51:35.160Z,14.81
2019-05-29T18:54:04.128Z,14.78
2019-05-29T18:56:34.107Z,14.73
2019-05-29T18:59:00.891Z,14.63
2019-05-29T19:01:27.762Z,14.61
2019-05-29T19:03:54.754Z,14.47
2019-05-29T19:06:21.694Z,14.33
2019-05-29T19:08:50.435Z,14.41
2019-05-29T19:11:23.686Z,14.29
2019-05-29T19:13:50.956Z,14.18
2019-05-29T19:16:21.844Z,14.14
2019-05-29T19:18:49.231Z,14.18
2019-05-29T19:21:19.157Z,14.16
2019-05-29T19:23:46.087Z,14.12
2019-05-29T19:26:13.346Z,14.04
2019-05-29T19:28:42.790Z,13.96
2019-05-29T19:31:09.913Z,13.97
2019-05-29T19:33:37.063Z,13.72
2019-05-29T19:36:04.960Z,13.69
2019-05-29T19:38:34.621Z,13.70
2019-05-29T19:41:04.756Z,13.71
2019-05-29T19:43:34.513Z,13.64
2019-05-29T19:46:03.377Z,13.52
2019-05-29T19:48:39.118Z,13.47
2019-05-29T19:51:06.070Z,13.46
2019-05-29T19:53:33.527Z,13.26
2019-05-29T19:56:04.121Z,13.28
2019-05-29T19:58:33.885Z,13.15
2019-05-29T20:01:00.858Z,13.19
2019-05-29T20:03:28.323Z,13.16
2019-05-29T20:05:57.301Z,13.05
2019-05-29T20:08:24.001Z,12.99
2019-05-29T20:10:53.905Z,12.89
2019-05-29T20:14:16.747Z,12.82
2019-05-29T20:16:43.706Z,12.67
2019-05-29T20:19:10.774Z,12.62
2019-05-29T20:21:38.974Z,12.57
2019-05-29T20:24:06.332Z,12.58
2019-05-29T20:26:33.289Z,12.35
2019-05-29T20:29:00.167Z,12.41
2019-05-29T20:31:27.083Z,12.34
2019-05-29T20:33:53.790Z,12.38
2019-05-29T20:36:20.513Z,12.35
2019-05-29T20:38:47.325Z,12.12
2019-05-29T20:41:17.699Z,11.99
2019-05-29T20:43:44.513Z,12.08
2019-05-29T20:46:11.361Z,11.98
2019-05-29T20:48:38.735Z,12.08
2019-05-29T20:51:06.611Z,12.05
2019-05-29T20:53:33.461Z,12.03
2019-05-29T20:56:00.363Z,12.04
2019-05-29T20:58:27.234Z,12.04
2019-05-29T21:00:53.833Z,11.89
2019-05-29T21:03:20.638Z,11.55
2019-05-29T21:05:47.383Z,11.74
2019-05-29T21:08:14.315Z,11.67
2019-05-29T21:10:42.035Z,11.53
2019-05-29T21:13:10.251Z,11.53
2019-05-29T21:15:39.742Z,11.43
2019-05-29T21:18:07.587Z,11.56
2019-05-29T21:20:34.347Z,11.56
2019-05-29T21:23:01.250Z,11.21
2019-05-29T21:25:27.958Z,11.17
2019-05-29T21:27:54.699Z,11.31
2019-05-29T21:30:25.348Z,11.19
2019-05-29T21:32:52.590Z,11.13
2019-05-29T21:35:19.625Z,11.14
2019-05-29T21:37:46.744Z,10.98
2019-05-29T21:40:18.279Z,11.15
2019-05-29T21:42:45.138Z,11.03
2019-05-29T21:45:14.259Z,10.99
2019-05-29T21:47:41.074Z,10.88
2019-05-29T21:50:08.832Z,10.79
2019-05-29T21:52:35.588Z,10.74
2019-05-29T21:55:05.049Z,10.68
2019-05-29T21:57:32.027Z,10.58
2019-05-29T21:59:58.919Z,10.51
2019-05-29T22:02:26.029Z,10.55
2019-05-29T22:04:54.102Z,10.44
2019-05-29T22:07:20.968Z,10.35
2019-05-29T22:09:47.927Z,10.30
2019-05-29T22:12:15.612Z,10.18
2019-05-29T22:14:42.499Z,10.24
2019-05-29T22:17:09.249Z,10.25
2019-05-29T22:19:36.260Z,10.21
2019-05-29T22:22:03.128Z,10.10
2019-05-29T22:24:31.189Z,10.07
2019-05-29T22:26:59.327Z,10.07
2019-05-29T22:29:26.409Z,10.04
2019-05-29T22:31:53.485Z,10.00
2019-05-29T22:34:20.267Z,9.94
2019-05-29T22:36:46.983Z,9.98
2019-05-29T22:39:13.965Z,9.97
2019-05-29T22:41:40.517Z,9.85
2019-05-29T22:44:07.562Z,9.83
2019-05-29T22:46:34.356Z,9.86
2019-05-29T22:49:02.038Z,9.76
2019-05-29T22:51:28.898Z,9.77
2019-05-29T22:53:57.819Z,9.72
2019-05-29T22:56:25.113Z,9.72
2019-05-29T22:58:52.064Z,9.56
2019-05-29T23:01:20.184Z,9.56
2019-05-29T23:03:47.199Z,9.60
2019-05-29T23:06:13.855Z,9.63
2019-05-29T23:08:40.813Z,9.71
2019-05-29T23:11:07.499Z,9.71
2019-05-29T23:13:34.254Z,9.53
2019-05-29T23:16:01.008Z,9.64
2019-05-29T23:18:27.723Z,9.64
2019-05-29T23:20:54.429Z,9.47
2019-05-29T23:23:21.217Z,9.53
2019-05-29T23:25:48.033Z,9.42
2019-05-29T23:28:14.751Z,9.42
2019-05-29T23:30:41.600Z,9.33
2019-05-29T23:33:08.399Z,9.23
2019-05-29T23:35:35.009Z,9.18
2019-05-29T23:38:01.703Z,9.10
2019-05-29T23:40:28.454Z,9.06
2019-05-29T23:42:55.403Z,9.00
2019-05-29T23:45:22.577Z,8.97
2019-05-29T23:47:49.389Z,8.87
2019-05-29T23:50:16.737Z,8.85
2019-05-29T23:52:43.377Z,8.66
2019-05-29T23:55:48.164Z,8.67
2019-05-29T23:58:14.833Z,8.63
